Wetterstation-Oberesslingen
Wetterdaten: aktuell Samstag, 21.04.2018 08:00
Datum Zeit Temperatur Temp+5cm Luftfeuchte Luftdruck Regen Wind Richtung Richtung Sonnenschein Zeit Regen ET Solar Taupunkt Windchill Windben
21.04.2018 08:00 11,6 C 11,7 C 84 % 1020,7 hPa 0,0 l/m 6,2 km/h (2 Bft) O-SO 109 24 min 0 min 0,051 mm 176 W/m 9,0 C 11,6 C 7,6 km/h (2 Bft)
21.04.2018 07:00 9,7 C 8,9 C 89 % 1020,5 hPa 0,0 l/m 4,4 km/h (1 Bft) SO 129 0 min 0 min 0,000 mm 32 W/m 8,0 C 9,7 C 6,0 km/h (2 Bft)
21.04.2018 06:00 9,9 C 8,9 C 89 % 1020,1 hPa 0,0 l/m 4,7 km/h (1 Bft) O-SO 123 0 min 0 min 0,000 mm 0 W/m 8,2 C 9,7 C 6,0 km/h (2 Bft)
21.04.2018 05:00 9,8 C 6,7 C 89 % 1020,2 hPa 0,0 l/m 1,2 km/h (1 Bft) SO 124 0 min 0 min 0,000 mm 0 W/m 8,1 C 9,8 C 2,7 km/h (1 Bft)
21.04.2018 04:00 10,9 C 8,3 C 86 % 1020,4 hPa 0,0 l/m 3,1 km/h (1 Bft) O-SO 109 0 min 0 min 0,000 mm 0 W/m 8,7 C 10,9 C 4,3 km/h (1 Bft)
21.04.2018 03:00 11,1 C 7,8 C 86 % 1020,4 hPa 0,0 l/m 3,7 km/h (1 Bft) O-SO 109 0 min 0 min 0,000 mm 0 W/m 8,8 C 11,1 C 6,0 km/h (2 Bft)
21.04.2018 02:00 11,5 C 8,3 C 83 % 1020,6 hPa 0,0 l/m 1,8 km/h (1 Bft) O-SO 109 0 min 0 min 0,000 mm 0 W/m 8,7 C 11,5 C 2,7 km/h (1 Bft)
21.04.2018 01:00 13,3 C 9,4 C 76 % 1020,8 hPa 0,0 l/m 3,0 km/h (1 Bft) O-SO 109 0 min 0 min 0,000 mm 0 W/m 9,2 C 13,3 C 6,0 km/h (2 Bft)
20.04.2018 23:54 13,7 C 10,0 C 73 % 1020,8 hPa 0,0 l/m 2,1 km/h (1 Bft) N 5 0 min 0 min 0,000 mm 0 W/m 8,9 C 13,7 C 2,7 km/h (1 Bft)
20.04.2018 22:54 15,3 C 11,1 C 66 % 1020,9 hPa 0,0 l/m 2,0 km/h (1 Bft) N 5 0 min 0 min 0,025 mm 0 W/m 9,0 C 15,3 C 2,7 km/h (1 Bft)
20.04.2018 21:54 17,4 C 12,8 C 61 % 1020,7 hPa 0,0 l/m 2,9 km/h (1 Bft) N-NW 342 0 min 0 min 0,001 mm 0 W/m 9,8 C 17,4 C 4,3 km/h (1 Bft)
20.04.2018 20:54 20,3 C 15,0 C 51 % 1020,5 hPa 0,0 l/m 1,4 km/h (1 Bft) NW 321 3 min 0 min 0,076 mm 0 W/m 9,8 C 20,3 C 2,7 km/h (1 Bft)
20.04.2018 19:57 23,9 C 20,0 C 37 % 1020,1 hPa 0,0 l/m 3,6 km/h (1 Bft) N-NW 331 15 min 0 min 0,203 mm 21 W/m 8,3 C 23,9 C 7,6 km/h (2 Bft)
20.04.2018 18:57 26,2 C 24,4 C 33 % 1020,2 hPa 0,0 l/m 6,8 km/h (2 Bft) NW 309 60 min 0 min 0,305 mm 146 W/m 8,6 C 26,2 C 10,8 km/h (2 Bft)
20.04.2018 17:57 27,1 C 31,1 C 31 % 1020,5 hPa 0,0 l/m 5,7 km/h (2 Bft) N-NW 329 60 min 0 min 0,406 mm 315 W/m 8,5 C 27,1 C 10,8 km/h (2 Bft)
20.04.2018 16:57 27,9 C 35,0 C 31 % 1020,8 hPa 0,0 l/m 4,5 km/h (1 Bft) N-NW 334 60 min 0 min 0,483 mm 480 W/m 9,2 C 27,9 C 9,2 km/h (2 Bft)
20.04.2018 15:51 27,6 C 37,2 C 27 % 1021,3 hPa 0,0 l/m 5,7 km/h (2 Bft) O-SO 111 60 min 0 min 0,533 mm 632 W/m 6,9 C 27,6 C 10,8 km/h (2 Bft)
20.04.2018 14:45 27,5 C 30,0 C 34 % 1022,0 hPa 0,0 l/m 4,6 km/h (1 Bft) W 267 60 min 0 min 0,001 mm 733 W/m 10,2 C 27,5 C 10,8 km/h (2 Bft)
20.04.2018 13:45 26,2 C 28,3 C 33 % 1022,7 hPa 0,0 l/m 4,3 km/h (1 Bft) S-SO 161 60 min 0 min 0,508 mm 789 W/m 8,6 C 26,2 C 7,6 km/h (2 Bft)
20.04.2018 12:34 24,4 C 27,8 C 36 % 1023,3 hPa 0,0 l/m 3,7 km/h (1 Bft) W-SW 254 58 min 0 min 0,432 mm 774 W/m 8,4 C 24,4 C 6,0 km/h (2 Bft)
20.04.2018 11:33 21,3 C 33,3 C 46 % 1023,8 hPa 0,0 l/m 2,8 km/h (1 Bft) NO 41 60 min 0 min 0,355 mm 704 W/m 9,2 C 21,3 C 6,0 km/h (2 Bft)
20.04.2018 10:33 18,3 C 28,9 C 53 % 1024,1 hPa 0,0 l/m 4,0 km/h (1 Bft) S-SO 165 60 min 0 min 0,254 mm 593 W/m 8,6 C 18,3 C 7,6 km/h (2 Bft)
20.04.2018 09:33 14,8 C 22,2 C 65 % 1024,3 hPa 0,0 l/m 5,6 km/h (2 Bft) S-SO 147 33 min 0 min 0,127 mm 440 W/m 8,3 C 14,8 C 9,2 km/h (2 Bft)
20.04.2018 09:00 12,6 C 20,0 C 75 % 1024,4 hPa 0,0 l/m 6,3 km/h (2 Bft) O-SO 119 0 min 0 min 0,000 mm 350 W/m 8,3 C 12,6 C 10,8 km/h (2 Bft)
_ Min-Zeit 05:18 05:18 15:27 19:00 - 21:42 - - - - - - 15:27 06:42 21:42
Minimum _ 9,3 C 6,1 C 26 % 1020,1 hPa - 1,1 km/h (1 Bft) - - - - - - 6,4 C 9,1 C 1,1 km/h (1 Bft)
_ Max-Zeit 16:36 16:05 05:12 09:00 09:00 17:36 - - 13:36 09:00 14:03 13:15 13:40 16:33 17:54
Maximum _ 28,4 C 38,9 C 90 % 1024,4 hPa 0,0 l/m 9,3 km/h
NW (2 Bft)
- - 11 min 0 min 0,533 mm 793 W/m 10,8 C 28,2 C 17,2 km/h
N-NW (3 Bft)
Durchschnitt _ 18,0 C 19,4 C 60 % 1021,6 hPa #0,0 l/m 3,9 km/h (1 Bft) O-SO - #24 min. #0 min. #0,051 mm 63 W/m 8,7 C 18,0 C 6,7 km/h (2 Bft)